Honaunau, Hawaii
Current Conditions -  °F | °C
As of 7:53 PM on Tuesday 27 Jan 2015 (Local Time) from PHKO Reporting Station
Broken Clouds Broken Clouds  
Wind Chill: 76°   Ceiling: 4400
Heat Index: 76°   Visibility: 10mi
Dew Point: 65°   Wind: 6mph
Humidity: 69%   Direction: 270°W
Pressure: 29.92"   Gusts: NA
Location:  19.42°N, 155.91°W
Report Text: PHKO 280553Z 27005KT 10SM FEW025 BKN044 24/18 A2992 RMK AO2 SLP131 T02440183 10278 20244 52016
Loading
Personal Weather Stations






























Interactive Weather Map New forecast layout! Learn more

10-Day Weather Forecast

Advertisements
Track Severe Weather on mobile